sensor_id;sensor_type;location;lat;lon;timestamp;pressure;altitude;pressure_sealevel;temperature;humidity
71043;BME280;58696;52.134;5.500;2023-09-12T00:02:25;101314.97;;;19.40;100.00
71043;BME280;58696;52.134;5.500;2023-09-12T00:04:52;101316.09;;;19.44;100.00
71043;BME280;58696;52.134;5.500;2023-09-12T00:07:19;101314.75;;;19.42;100.00
71043;BME280;58696;52.134;5.500;2023-09-12T00:09:49;101308.41;;;19.38;100.00
71043;BME280;58696;52.134;5.500;2023-09-12T00:12:22;101312.16;;;19.30;100.00
71043;BME280;58696;52.134;5.500;2023-09-12T00:14:54;101302.50;;;19.19;100.00
71043;BME280;58696;52.134;5.500;2023-09-12T00:17:21;101301.59;;;19.13;100.00
71043;BME280;58696;52.134;5.500;2023-09-12T00:19:52;101296.09;;;19.10;100.00
71043;BME280;58696;52.134;5.500;2023-09-12T00:22:18;101284.53;;;19.06;100.00
71043;BME280;58696;52.134;5.500;2023-09-12T00:24:46;101279.66;;;19.09;100.00
71043;BME280;58696;52.134;5.500;2023-09-12T00:27:13;101274.09;;;18.94;100.00
71043;BME280;58696;52.134;5.500;2023-09-12T00:29:47;101272.97;;;18.90;100.00
71043;BME280;58696;52.134;5.500;2023-09-12T00:32:13;101278.75;;;18.92;100.00
71043;BME280;58696;52.134;5.500;2023-09-12T00:34:40;101275.00;;;18.76;100.00
71043;BME280;58696;52.134;5.500;2023-09-12T00:37:06;101272.91;;;18.66;100.00
71043;BME280;58696;52.134;5.500;2023-09-12T00:39:34;101276.13;;;18.69;100.00
71043;BME280;58696;52.134;5.500;2023-09-12T00:42:06;101288.22;;;18.75;100.00
71043;BME280;58696;52.134;5.500;2023-09-12T00:44:35;101287.56;;;18.68;100.00
71043;BME280;58696;52.134;5.500;2023-09-12T00:47:04;101289.66;;;18.59;100.00
71043;BME280;58696;52.134;5.500;2023-09-12T00:49:34;101297.25;;;18.60;100.00
71043;BME280;58696;52.134;5.500;2023-09-12T00:52:03;101294.06;;;18.58;100.00
71043;BME280;58696;52.134;5.500;2023-09-12T00:54:30;101297.91;;;18.56;100.00
71043;BME280;58696;52.134;5.500;2023-09-12T00:56:57;101296.34;;;18.55;100.00
71043;BME280;58696;52.134;5.500;2023-09-12T00:59:26;101299.13;;;18.53;100.00
71043;BME280;58696;52.134;5.500;2023-09-12T01:01:55;101294.41;;;18.50;100.00
71043;BME280;58696;52.134;5.500;2023-09-12T01:04:26;101302.06;;;18.45;100.00
71043;BME280;58696;52.134;5.500;2023-09-12T01:07:02;101300.38;;;18.39;100.00
71043;BME280;58696;52.134;5.500;2023-09-12T01:09:30;101292.19;;;18.35;100.00
71043;BME280;58696;52.134;5.500;2023-09-12T01:11:57;101297.88;;;18.32;100.00
71043;BME280;58696;52.134;5.500;2023-09-12T01:14:26;101286.88;;;18.30;100.00
71043;BME280;58696;52.134;5.500;2023-09-12T01:16:53;101289.13;;;18.27;100.00
71043;BME280;58696;52.134;5.500;2023-09-12T01:19:22;101288.00;;;18.23;100.00
71043;BME280;58696;52.134;5.500;2023-09-12T01:22:09;101289.44;;;18.19;100.00
71043;BME280;58696;52.134;5.500;2023-09-12T01:27:39;101289.75;;;18.10;100.00
71043;BME280;58696;52.134;5.500;2023-09-12T01:30:10;101295.38;;;18.07;100.00
71043;BME280;58696;52.134;5.500;2023-09-12T01:32:37;101300.03;;;18.05;100.00
71043;BME280;58696;52.134;5.500;2023-09-12T01:35:06;101298.28;;;17.99;100.00
71043;BME280;58696;52.134;5.500;2023-09-12T01:37:36;101295.78;;;17.93;100.00
71043;BME280;58696;52.134;5.500;2023-09-12T01:40:04;101287.03;;;17.87;100.00
71043;BME280;58696;52.134;5.500;2023-09-12T01:42:36;101286.69;;;17.83;100.00
71043;BME280;58696;52.134;5.500;2023-09-12T01:45:08;101289.31;;;17.83;100.00
71043;BME280;58696;52.134;5.500;2023-09-12T01:47:36;101287.91;;;17.81;100.00
71043;BME280;58696;52.134;5.500;2023-09-12T01:50:03;101276.16;;;17.78;100.00
71043;BME280;58696;52.134;5.500;2023-09-12T01:52:36;101275.63;;;17.70;100.00
71043;BME280;58696;52.134;5.500;2023-09-12T01:55:03;101281.25;;;17.67;100.00
71043;BME280;58696;52.134;5.500;2023-09-12T01:57:33;101278.88;;;17.65;100.00
71043;BME280;58696;52.134;5.500;2023-09-12T02:00:00;101278.31;;;17.63;100.00
71043;BME280;58696;52.134;5.500;2023-09-12T02:02:26;101277.94;;;17.59;100.00
71043;BME280;58696;52.134;5.500;2023-09-12T02:05:18;101272.59;;;17.54;100.00
71043;BME280;58696;52.134;5.500;2023-09-12T02:07:46;101274.84;;;17.51;100.00
71043;BME280;58696;52.134;5.500;2023-09-12T02:10:14;101274.47;;;17.47;100.00
71043;BME280;58696;52.134;5.500;2023-09-12T02:12:43;101263.94;;;17.42;100.00
71043;BME280;58696;52.134;5.500;2023-09-12T02:15:12;101266.69;;;17.47;100.00
71043;BME280;58696;52.134;5.500;2023-09-12T02:17:44;101275.41;;;17.53;100.00
71043;BME280;58696;52.134;5.500;2023-09-12T02:20:17;101271.88;;;17.47;100.00
71043;BME280;58696;52.134;5.500;2023-09-12T02:22:46;101274.91;;;17.44;100.00
71043;BME280;58696;52.134;5.500;2023-09-12T02:25:16;101269.84;;;17.49;100.00
71043;BME280;58696;52.134;5.500;2023-09-12T02:27:42;101268.97;;;17.55;100.00
71043;BME280;58696;52.134;5.500;2023-09-12T02:30:09;101267.16;;;17.56;100.00
71043;BME280;58696;52.134;5.500;2023-09-12T02:32:36;101271.81;;;17.54;100.00
71043;BME280;58696;52.134;5.500;2023-09-12T02:35:08;101272.59;;;17.54;100.00
71043;BME280;58696;52.134;5.500;2023-09-12T02:37:34;101269.91;;;17.61;100.00
71043;BME280;58696;52.134;5.500;2023-09-12T02:40:02;101279.31;;;17.62;100.00
71043;BME280;58696;52.134;5.500;2023-09-12T02:42:30;101279.97;;;17.57;100.00
71043;BME280;58696;52.134;5.500;2023-09-12T02:44:59;101281.63;;;17.52;100.00
71043;BME280;58696;52.134;5.500;2023-09-12T02:47:26;101282.28;;;17.47;100.00
71043;BME280;58696;52.134;5.500;2023-09-12T02:49:54;101287.09;;;17.44;100.00
71043;BME280;58696;52.134;5.500;2023-09-12T02:52:20;101284.94;;;17.41;100.00
71043;BME280;58696;52.134;5.500;2023-09-12T02:54:47;101285.75;;;17.41;100.00
71043;BME280;58696;52.134;5.500;2023-09-12T02:57:14;101277.34;;;17.39;100.00
71043;BME280;58696;52.134;5.500;2023-09-12T02:59:43;101285.16;;;17.39;100.00
71043;BME280;58696;52.134;5.500;2023-09-12T03:02:12;101282.84;;;17.31;100.00
71043;BME280;58696;52.134;5.500;2023-09-12T03:04:38;101273.72;;;17.22;100.00
71043;BME280;58696;52.134;5.500;2023-09-12T03:07:10;101274.19;;;17.19;100.00
71043;BME280;58696;52.134;5.500;2023-09-12T03:09:39;101290.75;;;17.18;100.00
71043;BME280;58696;52.134;5.500;2023-09-12T03:12:08;101286.22;;;17.13;100.00
71043;BME280;58696;52.134;5.500;2023-09-12T03:14:35;101290.03;;;17.11;100.00
71043;BME280;58696;52.134;5.500;2023-09-12T03:17:04;101293.41;;;17.11;100.00
71043;BME280;58696;52.134;5.500;2023-09-12T03:19:35;101292.25;;;17.07;100.00
71043;BME280;58696;52.134;5.500;2023-09-12T03:22:04;101285.38;;;16.94;100.00
71043;BME280;58696;52.134;5.500;2023-09-12T03:24:30;101289.03;;;16.87;100.00
71043;BME280;58696;52.134;5.500;2023-09-12T03:26:58;101282.84;;;16.88;100.00
71043;BME280;58696;52.134;5.500;2023-09-12T03:29:30;101284.88;;;16.79;100.00
71043;BME280;58696;52.134;5.500;2023-09-12T03:31:59;101278.97;;;16.72;100.00
71043;BME280;58696;52.134;5.500;2023-09-12T03:34:26;101280.13;;;16.76;100.00
71043;BME280;58696;52.134;5.500;2023-09-12T03:36:55;101270.56;;;16.76;100.00
71043;BME280;58696;52.134;5.500;2023-09-12T03:39:24;101272.19;;;16.71;100.00
71043;BME280;58696;52.134;5.500;2023-09-12T03:41:51;101267.34;;;16.74;100.00
71043;BME280;58696;52.134;5.500;2023-09-12T03:44:21;101273.78;;;16.72;100.00
71043;BME280;58696;52.134;5.500;2023-09-12T03:46:48;101280.34;;;16.68;100.00
71043;BME280;58696;52.134;5.500;2023-09-12T03:49:14;101278.19;;;16.65;100.00
71043;BME280;58696;52.134;5.500;2023-09-12T03:51:41;101277.56;;;16.69;100.00
71043;BME280;58696;52.134;5.500;2023-09-12T03:54:12;101276.56;;;16.70;100.00
71043;BME280;58696;52.134;5.500;2023-09-12T03:56:39;101263.41;;;16.72;100.00
71043;BME280;58696;52.134;5.500;2023-09-12T03:59:08;101264.97;;;16.73;100.00
71043;BME280;58696;52.134;5.500;2023-09-12T04:01:37;101274.94;;;16.76;100.00
71043;BME280;58696;52.134;5.500;2023-09-12T04:04:04;101271.50;;;16.82;100.00
71043;BME280;58696;52.134;5.500;2023-09-12T04:06:35;101265.69;;;16.87;100.00
71043;BME280;58696;52.134;5.500;2023-09-12T04:09:07;101277.81;;;16.93;100.00
71043;BME280;58696;52.134;5.500;2023-09-12T04:11:33;101270.59;;;16.95;100.00
71043;BME280;58696;52.134;5.500;2023-09-12T04:14:14;101273.00;;;16.96;100.00
71043;BME280;58696;52.134;5.500;2023-09-12T04:16:45;101269.16;;;16.99;100.00
71043;BME280;58696;52.134;5.500;2023-09-12T04:19:13;101266.78;;;16.97;100.00
71043;BME280;58696;52.134;5.500;2023-09-12T04:21:40;101269.00;;;16.94;100.00
71043;BME280;58696;52.134;5.500;2023-09-12T04:24:09;101260.03;;;16.90;100.00
71043;BME280;58696;52.134;5.500;2023-09-12T04:26:38;101251.91;;;16.86;100.00
71043;BME280;58696;52.134;5.500;2023-09-12T04:29:07;101249.16;;;16.81;100.00
71043;BME280;58696;52.134;5.500;2023-09-12T04:31:36;101251.16;;;16.79;100.00
71043;BME280;58696;52.134;5.500;2023-09-12T04:34:05;101252.53;;;16.81;100.00
71043;BME280;58696;52.134;5.500;2023-09-12T04:36:35;101252.09;;;16.85;100.00
71043;BME280;58696;52.134;5.500;2023-09-12T04:39:04;101251.25;;;16.91;100.00
71043;BME280;58696;52.134;5.500;2023-09-12T04:41:31;101255.22;;;16.93;100.00
71043;BME280;58696;52.134;5.500;2023-09-12T04:44:00;101254.44;;;16.93;100.00
71043;BME280;58696;52.134;5.500;2023-09-12T04:46:28;101250.66;;;16.89;100.00
71043;BME280;58696;52.134;5.500;2023-09-12T04:48:55;101243.09;;;16.87;100.00
71043;BME280;58696;52.134;5.500;2023-09-12T04:51:23;101240.50;;;16.87;100.00
71043;BME280;58696;52.134;5.500;2023-09-12T04:53:50;101252.47;;;16.88;100.00
71043;BME280;58696;52.134;5.500;2023-09-12T04:56:23;101241.88;;;16.90;100.00
71043;BME280;58696;52.134;5.500;2023-09-12T04:58:57;101249.88;;;16.88;100.00
71043;BME280;58696;52.134;5.500;2023-09-12T05:01:26;101242.72;;;16.83;100.00
71043;BME280;58696;52.134;5.500;2023-09-12T05:03:57;101239.81;;;16.73;100.00
71043;BME280;58696;52.134;5.500;2023-09-12T05:06:27;101231.84;;;16.68;100.00
71043;BME280;58696;52.134;5.500;2023-09-12T05:08:53;101230.03;;;16.69;100.00
71043;BME280;58696;52.134;5.500;2023-09-12T05:11:22;101244.59;;;16.76;100.00
71043;BME280;58696;52.134;5.500;2023-09-12T05:13:53;101245.75;;;16.80;100.00
71043;BME280;58696;52.134;5.500;2023-09-12T05:16:20;101249.56;;;16.78;100.00
71043;BME280;58696;52.134;5.500;2023-09-12T05:18:49;101251.22;;;16.72;100.00
71043;BME280;58696;52.134;5.500;2023-09-12T05:21:16;101256.41;;;16.72;100.00
71043;BME280;58696;52.134;5.500;2023-09-12T05:23:46;101264.41;;;16.71;100.00
71043;BME280;58696;52.134;5.500;2023-09-12T05:26:16;101268.97;;;16.69;100.00
71043;BME280;58696;52.134;5.500;2023-09-12T05:28:43;101266.81;;;16.66;100.00
71043;BME280;58696;52.134;5.500;2023-09-12T05:31:10;101269.47;;;16.59;100.00
71043;BME280;58696;52.134;5.500;2023-09-12T05:33:39;101262.88;;;16.56;100.00
71043;BME280;58696;52.134;5.500;2023-09-12T05:36:08;101263.81;;;16.62;100.00
71043;BME280;58696;52.134;5.500;2023-09-12T05:38:37;101268.38;;;16.67;100.00
71043;BME280;58696;52.134;5.500;2023-09-12T05:41:09;101273.78;;;16.72;100.00
71043;BME280;58696;52.134;5.500;2023-09-12T05:43:39;101263.34;;;16.78;100.00
71043;BME280;58696;52.134;5.500;2023-09-12T05:46:08;101258.75;;;16.80;100.00
71043;BME280;58696;52.134;5.500;2023-09-12T05:48:35;101271.06;;;16.85;100.00
71043;BME280;58696;52.134;5.500;2023-09-12T05:51:02;101266.25;;;16.89;100.00
71043;BME280;58696;52.134;5.500;2023-09-12T05:53:30;101266.03;;;16.90;100.00
71043;BME280;58696;52.134;5.500;2023-09-12T05:56:01;101263.16;;;16.98;100.00
71043;BME280;58696;52.134;5.500;2023-09-12T05:58:28;101260.28;;;17.06;100.00
71043;BME280;58696;52.134;5.500;2023-09-12T06:00:57;101256.84;;;17.13;100.00
71043;BME280;58696;52.134;5.500;2023-09-12T06:03:23;101262.56;;;17.21;100.00
71043;BME280;58696;52.134;5.500;2023-09-12T06:05:50;101259.31;;;17.26;100.00
71043;BME280;58696;52.134;5.500;2023-09-12T06:08:17;101264.13;;;17.22;100.00
71043;BME280;58696;52.134;5.500;2023-09-12T06:10:45;101279.69;;;17.29;100.00
71043;BME280;58696;52.134;5.500;2023-09-12T06:13:15;101283.00;;;17.36;100.00
71043;BME280;58696;52.134;5.500;2023-09-12T06:15:43;101288.41;;;17.34;100.00
71043;BME280;58696;52.134;5.500;2023-09-12T06:18:10;101290.00;;;17.35;100.00
71043;BME280;58696;52.134;5.500;2023-09-12T06:20:39;101293.38;;;17.36;100.00
71043;BME280;58696;52.134;5.500;2023-09-12T06:23:06;101304.50;;;17.43;100.00
71043;BME280;58696;52.134;5.500;2023-09-12T06:25:32;101295.63;;;17.51;100.00
71043;BME280;58696;52.134;5.500;2023-09-12T06:27:59;101291.38;;;17.56;100.00
71043;BME280;58696;52.134;5.500;2023-09-12T06:30:27;101299.53;;;17.60;100.00
71043;BME280;58696;52.134;5.500;2023-09-12T06:32:56;101291.72;;;17.60;100.00
71043;BME280;58696;52.134;5.500;2023-09-12T06:35:23;101299.31;;;17.61;100.00
71043;BME280;58696;52.134;5.500;2023-09-12T06:37:52;101312.00;;;17.70;100.00
71043;BME280;58696;52.134;5.500;2023-09-12T06:40:19;101314.78;;;17.75;100.00
71043;BME280;58696;52.134;5.500;2023-09-12T06:42:45;101307.56;;;17.77;100.00
71043;BME280;58696;52.134;5.500;2023-09-12T06:45:14;101302.94;;;17.79;100.00
71043;BME280;58696;52.134;5.500;2023-09-12T06:47:43;101306.69;;;17.83;100.00
71043;BME280;58696;52.134;5.500;2023-09-12T06:50:12;101297.91;;;17.84;100.00
71043;BME280;58696;52.134;5.500;2023-09-12T06:52:47;101300.41;;;17.91;100.00
71043;BME280;58696;52.134;5.500;2023-09-12T06:55:23;101308.25;;;18.02;100.00
71043;BME280;58696;52.134;5.500;2023-09-12T06:57:52;101300.97;;;18.11;100.00
71043;BME280;58696;52.134;5.500;2023-09-12T07:00:21;101308.22;;;18.21;100.00
71043;BME280;58696;52.134;5.500;2023-09-12T07:02:48;101310.94;;;18.26;100.00
71043;BME280;58696;52.134;5.500;2023-09-12T07:05:19;101305.78;;;18.37;100.00
71043;BME280;58696;52.134;5.500;2023-09-12T07:07:49;101313.72;;;18.43;100.00
71043;BME280;58696;52.134;5.500;2023-09-12T07:10:18;101315.88;;;18.46;100.00
71043;BME280;58696;52.134;5.500;2023-09-12T07:12:52;101313.91;;;18.59;100.00
71043;BME280;58696;52.134;5.500;2023-09-12T07:15:19;101313.44;;;18.62;100.00
71043;BME280;58696;52.134;5.500;2023-09-12T07:17:46;101313.91;;;18.59;100.00
71043;BME280;58696;52.134;5.500;2023-09-12T07:20:14;101312.94;;;18.54;100.00
71043;BME280;58696;52.134;5.500;2023-09-12T07:22:45;101312.16;;;18.53;100.00
71043;BME280;58696;52.134;5.500;2023-09-12T07:25:16;101303.91;;;18.45;100.00
71043;BME280;58696;52.134;5.500;2023-09-12T07:27:43;101299.72;;;18.44;100.00
71043;BME280;58696;52.134;5.500;2023-09-12T07:30:13;101303.78;;;18.51;100.00
71043;BME280;58696;52.134;5.500;2023-09-12T07:32:39;101311.63;;;18.63;100.00
71043;BME280;58696;52.134;5.500;2023-09-12T07:35:06;101314.00;;;18.64;100.00
71043;BME280;58696;52.134;5.500;2023-09-12T07:37:36;101319.34;;;18.70;100.00
71043;BME280;58696;52.134;5.500;2023-09-12T07:40:02;101306.69;;;18.73;100.00
71043;BME280;58696;52.134;5.500;2023-09-12T07:42:36;101322.09;;;18.75;100.00
71043;BME280;58696;52.134;5.500;2023-09-12T07:45:05;101318.69;;;18.74;100.00
71043;BME280;58696;52.134;5.500;2023-09-12T07:47:32;101322.19;;;18.80;100.00
71043;BME280;58696;52.134;5.500;2023-09-12T07:49:59;101319.50;;;18.86;100.00
71043;BME280;58696;52.134;5.500;2023-09-12T07:52:27;101317.38;;;19.07;100.00
71043;BME280;58696;52.134;5.500;2023-09-12T07:55:02;101326.00;;;19.31;100.00
71043;BME280;58696;52.134;5.500;2023-09-12T07:57:29;101327.19;;;19.75;100.00
71043;BME280;58696;52.134;5.500;2023-09-12T07:59:56;101325.38;;;20.95;100.00
71043;BME280;58696;52.134;5.500;2023-09-12T08:02:25;101319.53;;;22.68;100.00
71043;BME280;58696;52.134;5.500;2023-09-12T08:04:54;101326.44;;;23.69;95.68
71043;BME280;58696;52.134;5.500;2023-09-12T08:07:23;101326.00;;;24.03;92.42
71043;BME280;58696;52.134;5.500;2023-09-12T08:12:21;101337.09;;;25.02;89.02
71043;BME280;58696;52.134;5.500;2023-09-12T08:14:48;101336.66;;;25.59;86.31
71043;BME280;58696;52.134;5.500;2023-09-12T08:17:19;101340.50;;;26.32;83.71
71043;BME280;58696;52.134;5.500;2023-09-12T08:19:47;101340.16;;;26.38;81.19
71043;BME280;58696;52.134;5.500;2023-09-12T08:22:13;101343.03;;;26.42;78.59
71043;BME280;58696;52.134;5.500;2023-09-12T08:24:40;101347.78;;;26.74;77.88
71043;BME280;58696;52.134;5.500;2023-09-12T08:27:07;101350.69;;;27.01;76.17
71043;BME280;58696;52.134;5.500;2023-09-12T08:29:36;101346.63;;;26.56;76.44
71043;BME280;58696;52.134;5.500;2023-09-12T08:32:08;101347.66;;;26.26;75.18
71043;BME280;58696;52.134;5.500;2023-09-12T08:34:37;101341.34;;;25.78;76.33
71043;BME280;58696;52.134;5.500;2023-09-12T08:37:04;101343.41;;;26.25;76.28
71043;BME280;58696;52.134;5.500;2023-09-12T08:39:39;101353.72;;;26.61;75.18
71043;BME280;58696;52.134;5.500;2023-09-12T08:42:10;101355.25;;;26.67;74.98
71043;BME280;58696;52.134;5.500;2023-09-12T08:44:37;101348.44;;;26.61;75.08
71043;BME280;58696;52.134;5.500;2023-09-12T08:47:04;101340.53;;;26.61;74.09
71043;BME280;58696;52.134;5.500;2023-09-12T08:49:32;101337.75;;;26.08;74.67
71043;BME280;58696;52.134;5.500;2023-09-12T08:52:06;101336.47;;;26.44;74.75
71043;BME280;58696;52.134;5.500;2023-09-12T08:54:35;101341.81;;;26.63;74.01
71043;BME280;58696;52.134;5.500;2023-09-12T08:57:02;101344.38;;;26.44;73.65
71043;BME280;58696;52.134;5.500;2023-09-12T08:59:34;101331.97;;;26.06;73.45
71043;BME280;58696;52.134;5.500;2023-09-12T09:02:00;101342.81;;;25.99;74.71
71043;BME280;58696;52.134;5.500;2023-09-12T09:04:28;101338.81;;;26.07;75.12
71043;BME280;58696;52.134;5.500;2023-09-12T09:06:57;101333.84;;;26.00;75.27
71043;BME280;58696;52.134;5.500;2023-09-12T09:09:24;101331.41;;;26.09;75.61
71043;BME280;58696;52.134;5.500;2023-09-12T09:11:54;101336.47;;;26.00;76.46
71043;BME280;58696;52.134;5.500;2023-09-12T09:14:22;101337.09;;;25.82;76.96
71043;BME280;58696;52.134;5.500;2023-09-12T09:16:53;101342.34;;;25.82;77.37
71043;BME280;58696;52.134;5.500;2023-09-12T09:19:21;101336.41;;;25.61;76.62
71043;BME280;58696;52.134;5.500;2023-09-12T09:21:48;101343.13;;;25.02;77.51
71043;BME280;58696;52.134;5.500;2023-09-12T09:24:19;101347.34;;;24.88;79.35
71043;BME280;58696;52.134;5.500;2023-09-12T09:26:51;101352.59;;;24.98;80.11
71043;BME280;58696;52.134;5.500;2023-09-12T09:29:25;101355.22;;;25.24;80.43
71043;BME280;58696;52.134;5.500;2023-09-12T09:31:54;101352.25;;;25.46;80.11
71043;BME280;58696;52.134;5.500;2023-09-12T09:34:21;101356.75;;;25.35;79.47
71043;BME280;58696;52.134;5.500;2023-09-12T09:36:50;101348.84;;;25.40;79.80
71043;BME280;58696;52.134;5.500;2023-09-12T09:39:21;101351.16;;;25.52;79.81
71043;BME280;58696;52.134;5.500;2023-09-12T09:41:51;101363.09;;;25.24;79.44
71043;BME280;58696;52.134;5.500;2023-09-12T09:44:20;101354.97;;;24.95;79.84
71043;BME280;58696;52.134;5.500;2023-09-12T09:46:50;101355.25;;;24.62;80.42
71043;BME280;58696;52.134;5.500;2023-09-12T09:49:18;101357.56;;;24.23;80.58
71043;BME280;58696;52.134;5.500;2023-09-12T09:51:55;101360.75;;;24.35;81.51
71043;BME280;58696;52.134;5.500;2023-09-12T09:54:25;101359.38;;;24.23;81.66
71043;BME280;58696;52.134;5.500;2023-09-12T09:56:55;101353.03;;;23.93;82.87
71043;BME280;58696;52.134;5.500;2023-09-12T09:59:27;101361.97;;;24.02;83.06
71043;BME280;58696;52.134;5.500;2023-09-12T10:01:57;101359.97;;;24.35;82.80
71043;BME280;58696;52.134;5.500;2023-09-12T10:04:27;101358.66;;;24.37;82.01
71043;BME280;58696;52.134;5.500;2023-09-12T10:06:59;101362.34;;;24.57;81.70
71043;BME280;58696;52.134;5.500;2023-09-12T10:09:32;101358.94;;;24.66;81.31
71043;BME280;58696;52.134;5.500;2023-09-12T10:12:00;101357.09;;;24.67;81.29
71043;BME280;58696;52.134;5.500;2023-09-12T10:14:29;101362.84;;;24.89;81.39
71043;BME280;58696;52.134;5.500;2023-09-12T10:17:02;101367.31;;;24.94;80.46
71043;BME280;58696;52.134;5.500;2023-09-12T10:19:42;101369.97;;;24.74;80.01
71043;BME280;58696;52.134;5.500;2023-09-12T10:22:12;101368.13;;;24.54;81.03
71043;BME280;58696;52.134;5.500;2023-09-12T10:24:42;101367.88;;;24.81;81.49
71043;BME280;58696;52.134;5.500;2023-09-12T10:27:10;101369.72;;;24.80;80.48
71043;BME280;58696;52.134;5.500;2023-09-12T10:29:41;101377.31;;;24.51;80.54
71043;BME280;58696;52.134;5.500;2023-09-12T10:32:08;101364.19;;;24.51;80.52
71043;BME280;58696;52.134;5.500;2023-09-12T10:34:36;101356.56;;;24.65;80.51
71043;BME280;58696;52.134;5.500;2023-09-12T10:37:05;101347.63;;;24.66;81.18
71043;BME280;58696;52.134;5.500;2023-09-12T10:39:32;101349.97;;;24.83;80.64
71043;BME280;58696;52.134;5.500;2023-09-12T10:42:01;101348.69;;;24.65;80.06
71043;BME280;58696;52.134;5.500;2023-09-12T10:44:30;101357.09;;;24.42;79.49
71043;BME280;58696;52.134;5.500;2023-09-12T10:46:58;101358.34;;;24.34;79.78
71043;BME280;58696;52.134;5.500;2023-09-12T10:49:24;101361.50;;;24.26;80.49
71043;BME280;58696;52.134;5.500;2023-09-12T10:51:53;101362.53;;;24.30;81.01
71043;BME280;58696;52.134;5.500;2023-09-12T10:54:24;101365.16;;;24.14;80.78
71043;BME280;58696;52.134;5.500;2023-09-12T10:57:07;101370.22;;;24.36;81.29
71043;BME280;58696;52.134;5.500;2023-09-12T10:59:34;101369.44;;;24.66;81.48
71043;BME280;58696;52.134;5.500;2023-09-12T11:04:55;101376.03;;;24.64;80.92
71043;BME280;58696;52.134;5.500;2023-09-12T11:10:25;101365.06;;;25.62;78.72
71043;BME280;58696;52.134;5.500;2023-09-12T11:12:52;101371.53;;;25.95;77.50
71043;BME280;58696;52.134;5.500;2023-09-12T11:15:20;101363.91;;;25.94;77.08
71043;BME280;58696;52.134;5.500;2023-09-12T11:17:48;101362.91;;;25.80;76.37
71043;BME280;58696;52.134;5.500;2023-09-12T11:20:17;101358.78;;;25.58;76.37
71043;BME280;58696;52.134;5.500;2023-09-12T11:22:52;101359.16;;;25.21;77.20
71043;BME280;58696;52.134;5.500;2023-09-12T11:25:23;101347.50;;;25.48;76.75
71043;BME280;58696;52.134;5.500;2023-09-12T11:30:22;101343.03;;;26.03;75.97
71043;BME280;58696;52.134;5.500;2023-09-12T11:32:53;101334.78;;;26.14;75.43
71043;BME280;58696;52.134;5.500;2023-09-12T11:35:24;101322.19;;;26.11;74.59
71043;BME280;58696;52.134;5.500;2023-09-12T11:37:54;101328.81;;;25.99;74.76
71043;BME280;58696;52.134;5.500;2023-09-12T11:43:01;101338.19;;;25.65;75.84
71043;BME280;58696;52.134;5.500;2023-09-12T11:45:30;101341.72;;;25.46;76.16
71043;BME280;58696;52.134;5.500;2023-09-12T11:48:00;101335.41;;;25.41;76.40
71043;BME280;58696;52.134;5.500;2023-09-12T11:52:58;101342.28;;;25.97;75.37
71043;BME280;58696;52.134;5.500;2023-09-12T11:55:25;101339.06;;;26.50;74.84
71043;BME280;58696;52.134;5.500;2023-09-12T11:57:58;101333.59;;;26.36;73.09
71043;BME280;58696;52.134;5.500;2023-09-12T12:00:28;101331.03;;;26.26;73.26
71043;BME280;58696;52.134;5.500;2023-09-12T12:03:02;101333.69;;;26.60;73.93
71043;BME280;58696;52.134;5.500;2023-09-12T12:05:29;101334.66;;;26.69;73.67
71043;BME280;58696;52.134;5.500;2023-09-12T12:07:58;101336.47;;;27.03;73.32
71043;BME280;58696;52.134;5.500;2023-09-12T12:10:49;101330.91;;;27.28;72.31
71043;BME280;58696;52.134;5.500;2023-09-12T12:13:21;101337.53;;;26.72;70.78
71043;BME280;58696;52.134;5.500;2023-09-12T12:15:50;101331.78;;;26.94;71.04
71043;BME280;58696;52.134;5.500;2023-09-12T12:18:17;101334.44;;;26.65;70.78
71043;BME280;58696;52.134;5.500;2023-09-12T12:20:45;101322.44;;;26.78;71.08
71043;BME280;58696;52.134;5.500;2023-09-12T12:23:12;101315.13;;;26.99;70.77
71043;BME280;58696;52.134;5.500;2023-09-12T12:25:39;101315.41;;;26.97;68.61
71043;BME280;58696;52.134;5.500;2023-09-12T12:28:06;101312.59;;;26.60;68.43
71043;BME280;58696;52.134;5.500;2023-09-12T12:30:37;101320.13;;;26.42;68.49
71043;BME280;58696;52.134;5.500;2023-09-12T12:33:07;101312.00;;;26.00;70.36
71043;BME280;58696;52.134;5.500;2023-09-12T12:36:05;101308.53;;;25.50;70.49
71043;BME280;58696;52.134;5.500;2023-09-12T12:38:37;101320.69;;;25.40;71.94
71043;BME280;58696;52.134;5.500;2023-09-12T12:41:29;101312.72;;;25.56;71.63
71043;BME280;58696;52.134;5.500;2023-09-12T12:44:11;101311.88;;;25.65;71.83
71043;BME280;58696;52.134;5.500;2023-09-12T12:46:50;101303.44;;;26.13;71.09
71043;BME280;58696;52.134;5.500;2023-09-12T12:49:16;101295.56;;;26.47;70.30
71043;BME280;58696;52.134;5.500;2023-09-12T12:51:44;101304.94;;;26.58;70.27
71043;BME280;58696;52.134;5.500;2023-09-12T12:54:14;101292.94;;;26.76;69.56
71043;BME280;58696;52.134;5.500;2023-09-12T12:56:43;101294.78;;;26.99;69.08
71043;BME280;58696;52.134;5.500;2023-09-12T12:59:12;101294.75;;;27.29;67.03
71043;BME280;58696;52.134;5.500;2023-09-12T13:01:38;101290.44;;;27.14;64.98
71043;BME280;58696;52.134;5.500;2023-09-12T13:04:08;101297.91;;;26.54;63.65
71043;BME280;58696;52.134;5.500;2023-09-12T13:06:35;101304.59;;;26.02;65.59
71043;BME280;58696;52.134;5.500;2023-09-12T13:09:07;101304.72;;;25.81;68.17
71043;BME280;58696;52.134;5.500;2023-09-12T13:11:35;101306.34;;;25.77;68.11
71043;BME280;58696;52.134;5.500;2023-09-12T13:14:06;101302.63;;;25.73;68.23